CPX83 Details

Departure: Auckland International Airport (NZAA)
Arrival: Daniel K Inouye International Airport (PHNL) at N/A
Route: TARIB G347 UBRAX OVLAD CUFFY A579 CROBY A579 CHEEM A579 CARRP OPACA4
Notes:


Current Weather Information
NZAA 251030Z AUTO 27014KT 9999 FEW055/// 13/09 Q1014 NOSIG
PHNL 251053Z 08009KT 10SM CLR 28/21 A3000 RMK AO2 SLP157 T02780206